createdAt,value
2018-06-09T00:01:51.249Z,100772.80
2018-06-09T00:04:17.233Z,100774.49
2018-06-09T00:06:43.205Z,100769.14
2018-06-09T00:09:09.183Z,100762.70
2018-06-09T00:11:35.152Z,100768.83
2018-06-09T00:14:01.144Z,100766.52
2018-06-09T00:16:27.116Z,100767.34
2018-06-09T00:18:53.105Z,100763.30
2018-06-09T00:21:19.064Z,100766.16
2018-06-09T00:23:45.038Z,100760.03
2018-06-09T00:26:10.985Z,100755.55
2018-06-09T00:28:36.987Z,100754.05
2018-06-09T00:31:03.040Z,100751.04
2018-06-09T00:33:29.012Z,100749.86
2018-06-09T00:35:55.019Z,100750.20
2018-06-09T00:38:20.944Z,100746.91
2018-06-09T00:40:46.941Z,100748.42
2018-06-09T00:43:12.904Z,100752.58
2018-06-09T00:45:38.921Z,100748.58
2018-06-09T00:48:04.875Z,100747.27
2018-06-09T00:50:30.833Z,100749.41
2018-06-09T00:52:56.812Z,100750.59
2018-06-09T00:55:22.762Z,100751.92
2018-06-09T00:57:48.718Z,100750.59
2018-06-09T01:00:14.659Z,100752.05
2018-06-09T01:02:40.607Z,100746.23
2018-06-09T01:05:06.572Z,100743.94
2018-06-09T01:07:32.555Z,100742.27
2018-06-09T01:09:58.518Z,100747.41
2018-06-09T01:12:24.487Z,100745.56
2018-06-09T01:14:50.457Z,100740.61
2018-06-09T01:17:16.408Z,100741.78
2018-06-09T01:19:42.367Z,100738.42
2018-06-09T01:22:08.319Z,100739.23
2018-06-09T01:24:34.298Z,100734.80
2018-06-09T01:27:00.268Z,100734.95
2018-06-09T01:29:26.237Z,100735.75
2018-06-09T01:31:52.198Z,100735.75
2018-06-09T01:34:18.274Z,100736.13
2018-06-09T01:36:44.238Z,100746.61
2018-06-09T01:39:10.217Z,100746.75
2018-06-09T01:41:36.212Z,100744.08
2018-06-09T01:44:02.214Z,100742.09
2018-06-09T01:46:28.721Z,100748.22
2018-06-09T01:48:54.680Z,100741.08
2018-06-09T01:51:20.672Z,100738.78
2018-06-09T01:53:46.664Z,100737.44
2018-06-09T01:56:12.642Z,100738.77
2018-06-09T01:58:38.625Z,100747.04
2018-06-09T02:01:04.584Z,100740.45
2018-06-09T02:03:30.566Z,100743.94
2018-06-09T02:05:56.639Z,100749.41
2018-06-09T02:08:22.617Z,100743.28
2018-06-09T02:10:48.566Z,100741.29
2018-06-09T02:13:14.548Z,100740.93
2018-06-09T02:15:40.538Z,100749.76
2018-06-09T02:18:06.544Z,100750.89
2018-06-09T02:20:32.529Z,100754.92
2018-06-09T02:22:58.481Z,100760.40
2018-06-09T02:25:24.442Z,100755.23
2018-06-09T02:27:50.405Z,100758.84
2018-06-09T02:30:16.366Z,100750.07
2018-06-09T02:32:42.358Z,100746.74
2018-06-09T02:35:08.314Z,100745.77
2018-06-09T02:37:34.264Z,100743.94
2018-06-09T02:40:00.229Z,100746.89
2018-06-09T02:42:26.195Z,100740.55
2018-06-09T02:44:52.204Z,100742.75
2018-06-09T02:47:18.169Z,100743.27
2018-06-09T02:49:44.233Z,100740.77
2018-06-09T02:52:10.206Z,100747.58
2018-06-09T02:54:36.189Z,100748.74
2018-06-09T02:57:02.140Z,100745.94
2018-06-09T02:59:28.098Z,100739.75
2018-06-09T03:01:54.055Z,100741.95
2018-06-09T03:04:20.043Z,100741.13
2018-06-09T03:06:46.007Z,100735.81
2018-06-09T03:09:12.003Z,100737.45
2018-06-09T03:11:37.964Z,100735.29
2018-06-09T03:14:03.909Z,100740.61
2018-06-09T03:16:29.898Z,100735.77
2018-06-09T03:18:55.892Z,100739.29
2018-06-09T03:21:21.842Z,100745.40
2018-06-09T03:23:47.836Z,100748.53
2018-06-09T03:26:13.774Z,100740.92
2018-06-09T03:28:39.769Z,100740.62
2018-06-09T03:31:05.731Z,100741.63
2018-06-09T03:33:31.716Z,100735.96
2018-06-09T03:35:57.695Z,100740.92
2018-06-09T03:38:23.655Z,100738.13
2018-06-09T03:40:49.651Z,100737.60
2018-06-09T03:43:16.794Z,100739.60
2018-06-09T03:45:42.737Z,100748.13
2018-06-09T03:48:08.760Z,100745.63
2018-06-09T03:50:34.719Z,100748.28
2018-06-09T03:53:00.671Z,100755.07
2018-06-09T03:55:26.735Z,100762.19
2018-06-09T03:57:52.718Z,100768.16
2018-06-09T04:00:18.716Z,100769.18
2018-06-09T04:02:44.699Z,100769.49
2018-06-09T04:05:10.683Z,100766.82
2018-06-09T04:07:36.657Z,100769.49
2018-06-09T04:10:02.617Z,100771.69
2018-06-09T04:12:28.586Z,100770.86
2018-06-09T04:14:54.542Z,100767.51
2018-06-09T04:17:20.500Z,100766.22
2018-06-09T04:19:46.468Z,100765.55
2018-06-09T04:22:12.426Z,100766.37
2018-06-09T04:24:38.399Z,100764.38
2018-06-09T04:27:04.408Z,100766.53
2018-06-09T04:29:30.358Z,100758.72
2018-06-09T04:31:56.308Z,100758.20
2018-06-09T04:34:22.269Z,100760.70
2018-06-09T04:36:48.318Z,100762.53
2018-06-09T04:39:14.305Z,100763.72
2018-06-09T04:41:40.267Z,100770.02
2018-06-09T04:44:06.226Z,100765.51
2018-06-09T04:46:32.208Z,100771.64
2018-06-09T04:48:58.177Z,100772.14
2018-06-09T04:51:24.128Z,100768.02
2018-06-09T04:53:50.127Z,100768.36
2018-06-09T04:56:16.092Z,100766.67
2018-06-09T04:58:42.073Z,100772.82
2018-06-09T05:01:08.044Z,100771.53
2018-06-09T05:03:34.011Z,100780.48
2018-06-09T05:05:59.983Z,100774.70
2018-06-09T05:08:25.955Z,100774.86
2018-06-09T05:10:51.909Z,100769.04
2018-06-09T05:13:17.875Z,100762.89
2018-06-09T05:15:43.956Z,100765.86
2018-06-09T05:18:10.013Z,100759.37
2018-06-09T05:20:35.994Z,100768.98
2018-06-09T05:23:01.960Z,100766.02
2018-06-09T05:25:27.959Z,100769.19
2018-06-09T05:27:53.954Z,100767.35
2018-06-09T05:30:19.927Z,100767.70
2018-06-09T05:32:45.886Z,100765.85
2018-06-09T05:35:11.840Z,100761.73
2018-06-09T05:37:37.817Z,100763.66
2018-06-09T05:40:03.802Z,100772.56
2018-06-09T05:42:29.809Z,100772.67
2018-06-09T05:44:55.767Z,100768.89
2018-06-09T05:47:21.750Z,100770.73
2018-06-09T05:49:47.706Z,100769.69
2018-06-09T05:52:13.671Z,100778.13
2018-06-09T05:54:39.667Z,100778.33
2018-06-09T05:57:05.648Z,100773.17
2018-06-09T05:59:31.592Z,100774.50
2018-06-09T06:01:57.563Z,100776.84
2018-06-09T06:04:23.595Z,100776.18
2018-06-09T06:06:49.579Z,100779.67
2018-06-09T06:09:15.557Z,100784.97
2018-06-09T06:11:41.539Z,100789.93
2018-06-09T06:14:07.495Z,100794.23
2018-06-09T06:16:33.597Z,100793.77
2018-06-09T06:18:59.600Z,100798.41
2018-06-09T06:21:25.595Z,100794.94
2018-06-09T06:23:51.541Z,100789.78
2018-06-09T06:26:17.493Z,100794.78
2018-06-09T06:28:43.475Z,100806.73
2018-06-09T06:31:09.536Z,100804.75
2018-06-09T06:33:35.492Z,100804.75
2018-06-09T06:36:01.487Z,100796.78
2018-06-09T06:38:27.479Z,100800.91
2018-06-09T06:40:53.460Z,100802.60
2018-06-09T06:43:19.430Z,100801.38
2018-06-09T06:45:45.405Z,100805.72
2018-06-09T06:48:11.386Z,100813.17
2018-06-09T06:50:37.361Z,100809.27
2018-06-09T06:53:03.414Z,100819.22
2018-06-09T06:55:29.445Z,100821.51
2018-06-09T06:57:55.554Z,100822.33
2018-06-09T07:00:21.592Z,100822.17
2018-06-09T07:02:47.660Z,100824.69
2018-06-09T07:05:13.668Z,100823.66
2018-06-09T07:07:39.758Z,100819.87
2018-06-09T07:10:05.796Z,100825.00
2018-06-09T07:12:31.816Z,100823.36
2018-06-09T07:14:57.798Z,100821.67
2018-06-09T07:17:23.789Z,100811.72
2018-06-09T07:19:49.747Z,100815.19
2018-06-09T07:22:15.760Z,100819.05
2018-06-09T07:24:41.697Z,100813.98
2018-06-09T07:27:07.673Z,100818.70
2018-06-09T07:29:33.653Z,100815.53
2018-06-09T07:31:59.620Z,100817.42
2018-06-09T07:34:25.605Z,100813.92
2018-06-09T07:36:51.588Z,100809.94
2018-06-09T07:39:17.560Z,100806.29
2018-06-09T07:41:43.516Z,100801.11
2018-06-09T07:44:09.469Z,100796.30
2018-06-09T07:46:35.432Z,100800.64
2018-06-09T07:49:01.418Z,100808.12
2018-06-09T07:51:27.416Z,100810.27
2018-06-09T07:53:53.360Z,100811.45
2018-06-09T07:56:19.339Z,100811.61
2018-06-09T07:58:45.373Z,100810.44
2018-06-09T08:01:11.351Z,100813.59
2018-06-09T08:03:37.413Z,100811.27
2018-06-09T08:06:03.375Z,100814.11
2018-06-09T08:08:29.454Z,100813.92
2018-06-09T08:10:55.507Z,100816.89
2018-06-09T08:13:21.527Z,100821.89
2018-06-09T08:15:47.551Z,100815.72
2018-06-09T08:18:13.518Z,100818.25
2018-06-09T08:20:39.479Z,100816.23
2018-06-09T08:23:05.464Z,100815.56
2018-06-09T08:25:32.491Z,100818.73
2018-06-09T08:27:58.467Z,100816.42
2018-06-09T08:30:24.435Z,100817.05
2018-06-09T08:32:50.420Z,100815.59
2018-06-09T08:35:16.367Z,100814.08
2018-06-09T08:37:42.307Z,100813.45
2018-06-09T08:40:08.284Z,100805.94
2018-06-09T08:42:34.238Z,100805.47
2018-06-09T08:45:00.313Z,100811.41
2018-06-09T08:47:26.276Z,100815.70
2018-06-09T08:49:52.233Z,100823.36
2018-06-09T08:52:18.203Z,100818.91
2018-06-09T08:54:44.230Z,100822.39
2018-06-09T08:57:10.219Z,100814.39
2018-06-09T08:59:36.167Z,100820.09
2018-06-09T09:02:02.130Z,100815.44
2018-06-09T09:04:28.110Z,100816.25
2018-06-09T09:06:54.158Z,100809.77
2018-06-09T09:09:20.193Z,100806.25
2018-06-09T09:11:46.125Z,100815.23
2018-06-09T09:14:12.115Z,100813.91
2018-06-09T09:16:38.082Z,100819.67
2018-06-09T09:19:04.060Z,100814.05
2018-06-09T09:21:30.009Z,100811.39
2018-06-09T09:23:55.998Z,100816.52
2018-06-09T09:26:21.966Z,100813.86
2018-06-09T09:28:47.932Z,100811.86
2018-06-09T09:31:13.904Z,100806.19
2018-06-09T09:33:39.876Z,100809.41
2018-06-09T09:36:05.830Z,100805.63
2018-06-09T09:38:31.797Z,100807.42
2018-06-09T09:40:57.754Z,100806.80
2018-06-09T09:43:23.731Z,100800.16
2018-06-09T09:45:49.727Z,100795.31
2018-06-09T09:48:15.722Z,100795.97
2018-06-09T09:50:41.692Z,100795.46
2018-06-09T09:53:07.701Z,100802.55
2018-06-09T09:55:33.671Z,100796.05
2018-06-09T09:57:59.679Z,100800.85
2018-06-09T10:00:25.687Z,100797.91
2018-06-09T10:02:51.665Z,100800.41
2018-06-09T10:05:17.652Z,100791.91
2018-06-09T10:07:44.476Z,100794.06
2018-06-09T10:10:10.452Z,100793.41
2018-06-09T10:12:36.539Z,100793.25
2018-06-09T10:15:03.050Z,100802.86
2018-06-09T10:17:29.766Z,100789.58
2018-06-09T10:19:56.080Z,100789.11
2018-06-09T10:22:22.546Z,100786.11
2018-06-09T10:24:48.617Z,100790.75
2018-06-09T10:27:14.638Z,100790.24
2018-06-09T10:29:40.597Z,100793.25
2018-06-09T10:32:06.552Z,100791.55
2018-06-09T10:34:32.539Z,100788.75
2018-06-09T10:36:58.531Z,100788.44
2018-06-09T10:39:24.501Z,100781.45
2018-06-09T10:41:50.471Z,100783.59
2018-06-09T10:44:16.456Z,100785.74
2018-06-09T10:46:42.460Z,100785.58
2018-06-09T10:49:09.324Z,100786.41
2018-06-09T10:51:35.291Z,100780.94
2018-06-09T10:54:01.268Z,100776.95
2018-06-09T10:56:27.221Z,100783.95
2018-06-09T10:58:53.264Z,100783.28
2018-06-09T11:01:19.239Z,100781.29
2018-06-09T11:03:45.210Z,100781.60
2018-06-09T11:06:11.194Z,100778.11
2018-06-09T11:08:37.154Z,100773.41
2018-06-09T11:11:03.141Z,100769.23
2018-06-09T11:13:29.137Z,100771.91
2018-06-09T11:15:55.126Z,100766.73
2018-06-09T11:18:21.150Z,100768.02
2018-06-09T11:20:47.104Z,100768.73
2018-06-09T11:23:13.074Z,100756.77
2018-06-09T11:25:39.020Z,100759.89
2018-06-09T11:28:04.989Z,100756.11
2018-06-09T11:30:30.961Z,100752.95
2018-06-09T11:32:56.938Z,100755.44
2018-06-09T11:35:22.966Z,100754.83
2018-06-09T11:37:48.950Z,100746.23
2018-06-09T11:40:14.902Z,100746.45
2018-06-09T11:42:40.915Z,100750.27
2018-06-09T11:45:06.872Z,100743.58
2018-06-09T11:47:32.914Z,100747.77
2018-06-09T11:49:58.873Z,100741.12
2018-06-09T11:52:24.850Z,100738.45
2018-06-09T11:54:50.833Z,100735.13
2018-06-09T11:57:16.799Z,100734.98
2018-06-09T11:59:42.812Z,100734.78
2018-06-09T12:02:08.790Z,100732.80
2018-06-09T12:04:34.776Z,100733.14
2018-06-09T12:07:00.744Z,100732.69
2018-06-09T12:09:26.715Z,100729.59
2018-06-09T12:11:52.696Z,100723.91
2018-06-09T12:14:18.729Z,100724.34
2018-06-09T12:16:44.726Z,100732.48
2018-06-09T12:19:10.702Z,100720.65
2018-06-09T12:21:36.672Z,100724.44
2018-06-09T12:24:02.630Z,100721.83
2018-06-09T12:26:28.623Z,100721.16
2018-06-09T12:28:54.590Z,100714.75
2018-06-09T12:31:20.569Z,100714.55
2018-06-09T12:33:46.524Z,100712.04
2018-06-09T12:36:12.483Z,100721.54
2018-06-09T12:38:38.455Z,100723.74
2018-06-09T12:41:04.444Z,100719.63
2018-06-09T12:43:30.436Z,100721.83
2018-06-09T12:45:56.403Z,100716.32
2018-06-09T12:48:22.370Z,100713.69
2018-06-09T12:50:48.345Z,100715.70
2018-06-09T12:53:14.337Z,100717.63
2018-06-09T12:55:40.388Z,100711.70
2018-06-09T12:58:06.359Z,100718.33
2018-06-09T13:00:32.330Z,100706.44
2018-06-09T13:02:58.268Z,100698.84
2018-06-09T13:05:24.325Z,100699.95
2018-06-09T13:07:50.292Z,100692.61
2018-06-09T13:10:16.280Z,100696.36
2018-06-09T13:12:42.795Z,100692.15
2018-06-09T13:15:09.557Z,100691.42
2018-06-09T13:17:35.530Z,100686.59
2018-06-09T13:20:01.520Z,100681.95
2018-06-09T13:22:27.501Z,100673.49
2018-06-09T13:24:53.531Z,100674.78
2018-06-09T13:27:19.480Z,100666.45
2018-06-09T13:29:45.462Z,100666.66
2018-06-09T13:32:11.441Z,100660.32
2018-06-09T13:34:37.407Z,100657.35
2018-06-09T13:37:03.381Z,100657.66
2018-06-09T13:39:29.340Z,100657.01
2018-06-09T13:41:55.308Z,100650.53
2018-06-09T13:44:21.288Z,100648.87
2018-06-09T13:46:47.337Z,100642.39
2018-06-09T13:49:13.265Z,100647.20
2018-06-09T13:51:39.249Z,100640.13
2018-06-09T13:54:05.317Z,100641.45
2018-06-09T13:56:31.331Z,100641.47
2018-06-09T13:58:57.323Z,100630.25
2018-06-09T14:01:23.325Z,100637.55
2018-06-09T14:03:49.316Z,100633.33
2018-06-09T14:06:15.322Z,100632.52
2018-06-09T14:08:41.337Z,100635.31
2018-06-09T14:11:07.291Z,100628.69
2018-06-09T14:13:33.348Z,100630.02
2018-06-09T14:15:59.344Z,100632.52
2018-06-09T14:18:25.515Z,100628.83
2018-06-09T14:20:51.484Z,100630.51
2018-06-09T14:23:17.475Z,100630.36
2018-06-09T14:25:43.444Z,100628.19
2018-06-09T14:28:09.492Z,100625.87
2018-06-09T14:30:35.500Z,100623.06
2018-06-09T14:33:01.810Z,100621.23
2018-06-09T14:35:27.776Z,100628.89
2018-06-09T14:37:53.766Z,100617.55
2018-06-09T14:40:19.795Z,100622.95
2018-06-09T14:42:45.771Z,100619.10
2018-06-09T14:45:11.915Z,100620.58
2018-06-09T14:47:37.917Z,100620.58
2018-06-09T14:50:03.878Z,100625.05
2018-06-09T14:52:29.851Z,100622.05
2018-06-09T14:54:55.954Z,100618.41
2018-06-09T14:57:21.924Z,100622.53
2018-06-09T14:59:47.911Z,100618.48
2018-06-09T15:02:13.958Z,100618.20
2018-06-09T15:04:39.909Z,100623.64
2018-06-09T15:07:05.879Z,100623.06
2018-06-09T15:09:31.907Z,100627.20
2018-06-09T15:11:57.869Z,100621.00
2018-06-09T15:14:23.829Z,100618.20
2018-06-09T15:16:49.817Z,100625.19
2018-06-09T15:19:15.847Z,100623.37
2018-06-09T15:21:41.819Z,100619.39
2018-06-09T15:24:07.790Z,100622.73
2018-06-09T15:26:33.765Z,100621.59
2018-06-09T15:28:59.765Z,100624.17
2018-06-09T15:31:25.733Z,100620.55
2018-06-09T15:33:51.704Z,100621.53
2018-06-09T15:36:17.682Z,100625.19
2018-06-09T15:38:43.635Z,100624.00
2018-06-09T15:41:09.597Z,100631.33
2018-06-09T15:43:35.557Z,100621.72
2018-06-09T15:46:01.619Z,100613.03
2018-06-09T15:48:27.585Z,100610.91
2018-06-09T15:50:53.574Z,100611.08
2018-06-09T15:53:19.543Z,100597.42
2018-06-09T15:55:45.540Z,100602.59
2018-06-09T15:58:11.514Z,100598.12
2018-06-09T16:00:37.494Z,100603.95
2018-06-09T16:03:03.588Z,100598.92
2018-06-09T16:05:29.563Z,100599.66
2018-06-09T16:07:55.580Z,100600.98
2018-06-09T16:10:21.559Z,100598.77
2018-06-09T16:12:47.679Z,100592.95
2018-06-09T16:15:13.678Z,100590.58
2018-06-09T16:17:39.667Z,100595.86
2018-06-09T16:20:05.727Z,100595.89
2018-06-09T16:22:31.684Z,100595.19
2018-06-09T16:24:57.665Z,100599.57
2018-06-09T16:27:23.620Z,100605.59
2018-06-09T16:29:49.655Z,100597.79
2018-06-09T16:32:15.638Z,100597.79
2018-06-09T16:34:41.685Z,100593.46
2018-06-09T16:37:07.611Z,100592.13
2018-06-09T16:39:33.598Z,100588.56
2018-06-09T16:41:59.592Z,100580.14
2018-06-09T16:44:25.586Z,100589.98
2018-06-09T16:46:51.582Z,100576.30
2018-06-09T16:49:17.531Z,100590.94
2018-06-09T16:51:43.549Z,100583.98
2018-06-09T16:54:09.516Z,100592.78
2018-06-09T16:56:35.516Z,100595.30
2018-06-09T16:59:01.506Z,100604.27
2018-06-09T17:01:27.643Z,100604.27
2018-06-09T17:03:53.632Z,100609.38
2018-06-09T17:06:19.623Z,100607.09
2018-06-09T17:08:45.617Z,100617.87
2018-06-09T17:11:11.603Z,100620.55
2018-06-09T17:13:37.583Z,100618.01
2018-06-09T17:16:03.616Z,100619.20
2018-06-09T17:18:29.601Z,100619.50
2018-06-09T17:20:55.654Z,100617.02
2018-06-09T17:23:21.652Z,100614.05
2018-06-09T17:25:47.632Z,100610.88
2018-06-09T17:28:13.613Z,100599.29
2018-06-09T17:30:39.626Z,100600.25
2018-06-09T17:33:05.588Z,100599.59
2018-06-09T17:35:31.559Z,100602.59
2018-06-09T17:37:57.525Z,100600.62
2018-06-09T17:40:23.508Z,100599.73
2018-06-09T17:42:49.480Z,100591.82
2018-06-09T17:45:15.457Z,100591.96
2018-06-09T17:47:41.427Z,100591.73
2018-06-09T17:50:07.396Z,100590.44
2018-06-09T17:52:33.351Z,100595.22
2018-06-09T17:54:59.329Z,100596.94
2018-06-09T17:57:25.343Z,100598.77
2018-06-09T17:59:51.311Z,100595.75
2018-06-09T18:02:17.268Z,100599.73
2018-06-09T18:04:43.240Z,100595.27
2018-06-09T18:07:09.226Z,100594.94
2018-06-09T18:09:35.197Z,100602.59
2018-06-09T18:12:01.176Z,100603.11
2018-06-09T18:14:27.176Z,100604.97
2018-06-09T18:16:53.176Z,100611.25
2018-06-09T18:19:19.205Z,100615.91
2018-06-09T18:21:45.204Z,100624.38
2018-06-09T18:24:11.169Z,100625.05
2018-06-09T18:26:37.147Z,100626.47
2018-06-09T18:29:03.151Z,100629.32
2018-06-09T18:31:29.136Z,100623.33
2018-06-09T18:33:55.161Z,100624.68
2018-06-09T18:36:21.130Z,100618.34
2018-06-09T18:38:47.103Z,100626.16
2018-06-09T18:41:13.075Z,100630.95
2018-06-09T18:43:39.064Z,100624.99
2018-06-09T18:46:05.048Z,100626.52
2018-06-09T18:48:31.143Z,100624.97
2018-06-09T18:50:57.133Z,100625.92
2018-06-09T18:53:23.101Z,100629.48
2018-06-09T18:55:49.069Z,100630.02
2018-06-09T18:58:15.057Z,100628.75
2018-06-09T19:00:41.030Z,100637.55
2018-06-09T19:03:07.004Z,100638.14
2018-06-09T19:05:32.960Z,100634.13
2018-06-09T19:07:58.967Z,100642.47
2018-06-09T19:10:24.992Z,100643.43
2018-06-09T19:12:50.967Z,100643.80
2018-06-09T19:15:16.970Z,100648.44
2018-06-09T19:17:42.946Z,100647.59
2018-06-09T19:20:08.926Z,100652.42
2018-06-09T19:22:34.878Z,100660.73
2018-06-09T19:25:00.844Z,100667.21
2018-06-09T19:27:26.859Z,100661.73
2018-06-09T19:29:52.811Z,100661.39
2018-06-09T19:32:18.798Z,100662.06
2018-06-09T19:34:44.764Z,100661.24
2018-06-09T19:37:10.722Z,100659.26
2018-06-09T19:39:36.699Z,100657.77
2018-06-09T19:42:02.680Z,100661.09
2018-06-09T19:44:28.659Z,100654.77
2018-06-09T19:46:54.629Z,100656.27
2018-06-09T19:49:20.621Z,100657.55
2018-06-09T19:51:46.592Z,100663.34
2018-06-09T19:54:12.578Z,100667.33
2018-06-09T19:56:38.561Z,100664.70
2018-06-09T19:59:04.541Z,100662.35
2018-06-09T20:01:30.546Z,100667.36
2018-06-09T20:03:56.536Z,100668.38
2018-06-09T20:06:22.537Z,100667.72
2018-06-09T20:08:48.501Z,100677.53
2018-06-09T20:11:14.466Z,100674.36
2018-06-09T20:13:40.470Z,100680.96
2018-06-09T20:16:06.455Z,100685.45
2018-06-09T20:18:32.461Z,100689.64
2018-06-09T20:20:58.504Z,100687.80
2018-06-09T20:23:24.477Z,100690.31
2018-06-09T20:25:50.429Z,100687.22
2018-06-09T20:28:16.387Z,100692.48
2018-06-09T20:30:42.344Z,100688.84
2018-06-09T20:33:08.351Z,100695.44
2018-06-09T20:35:34.347Z,100697.78
2018-06-09T20:38:00.341Z,100691.59
2018-06-09T20:40:26.323Z,100690.46
2018-06-09T20:42:52.289Z,100687.82
2018-06-09T20:45:18.257Z,100684.32
2018-06-09T20:47:44.224Z,100685.81
2018-06-09T20:50:10.183Z,100685.33
2018-06-09T20:52:36.172Z,100677.53
2018-06-09T20:55:02.132Z,100679.99
2018-06-09T20:57:28.110Z,100673.04
2018-06-09T20:59:54.079Z,100669.70
2018-06-09T21:02:20.086Z,100664.72
2018-06-09T21:04:46.031Z,100661.73
2018-06-09T21:07:11.992Z,100656.09
2018-06-09T21:09:37.950Z,100656.30
2018-06-09T21:12:03.896Z,100658.42
2018-06-09T21:14:29.881Z,100662.72
2018-06-09T21:16:55.852Z,100656.72
2018-06-09T21:19:21.825Z,100665.72
2018-06-09T21:21:47.791Z,100660.20
2018-06-09T21:24:13.755Z,100659.55
2018-06-09T21:26:39.787Z,100664.02
2018-06-09T21:29:05.766Z,100667.52
2018-06-09T21:31:31.733Z,100671.20
2018-06-09T21:33:57.727Z,100680.65
2018-06-09T21:36:23.724Z,100686.98
2018-06-09T21:38:49.681Z,100696.77
2018-06-09T21:41:15.806Z,100693.12
2018-06-09T21:43:41.806Z,100696.59
2018-06-09T21:46:07.784Z,100689.64
2018-06-09T21:48:34.950Z,100694.01
2018-06-09T21:51:00.920Z,100703.98
2018-06-09T21:53:26.883Z,100705.44
2018-06-09T21:55:52.859Z,100701.45
2018-06-09T21:58:18.823Z,100715.20
2018-06-09T22:00:44.823Z,100714.23
2018-06-09T22:03:10.778Z,100725.02
2018-06-09T22:05:36.768Z,100726.00
2018-06-09T22:08:02.763Z,100717.06
2018-06-09T22:10:28.750Z,100715.37
2018-06-09T22:12:54.920Z,100721.20
2018-06-09T22:15:20.912Z,100727.17
2018-06-09T22:17:46.871Z,100723.20
2018-06-09T22:20:12.864Z,100721.39
2018-06-09T22:22:38.844Z,100712.53
2018-06-09T22:25:04.839Z,100704.42
2018-06-09T22:27:30.806Z,100708.92
2018-06-09T22:29:56.785Z,100712.69
2018-06-09T22:32:22.776Z,100711.07
2018-06-09T22:34:48.755Z,100709.89
2018-06-09T22:37:14.940Z,100700.12
2018-06-09T22:39:40.931Z,100692.32
2018-06-09T22:42:06.913Z,100696.09
2018-06-09T22:44:32.905Z,100668.69
2018-06-09T22:46:58.899Z,100664.53
2018-06-09T22:49:24.895Z,100661.73
2018-06-09T22:51:50.895Z,100669.36
2018-06-09T22:54:16.922Z,100690.63
2018-06-09T22:56:43.025Z,100703.27
2018-06-09T22:59:09.034Z,100719.41
2018-06-09T23:01:35.033Z,100719.87
2018-06-09T23:04:01.044Z,100720.23
2018-06-09T23:06:27.052Z,100714.05
2018-06-09T23:08:53.060Z,100716.89
2018-06-09T23:11:19.145Z,100723.55
2018-06-09T23:13:45.273Z,100728.04
2018-06-09T23:16:11.261Z,100739.83
2018-06-09T23:18:37.236Z,100746.66
2018-06-09T23:21:03.239Z,100744.47
2018-06-09T23:23:29.226Z,100756.88
2018-06-09T23:25:55.201Z,100758.39
2018-06-09T23:28:21.174Z,100760.71
2018-06-09T23:30:47.419Z,100755.37
2018-06-09T23:33:13.363Z,100756.28
2018-06-09T23:35:39.400Z,100758.77
2018-06-09T23:38:05.505Z,100759.42
2018-06-09T23:40:31.613Z,100759.42
2018-06-09T23:42:57.738Z,100759.09
2018-06-09T23:45:23.749Z,100760.09
2018-06-09T23:47:49.743Z,100759.94
2018-06-09T23:50:15.943Z,100757.09
2018-06-09T23:52:41.968Z,100755.25
2018-06-09T23:55:07.964Z,100757.73
2018-06-09T23:57:33.963Z,100752.44
